sensor_id;sensor_type;location;lat;lon;timestamp;pressure;altitude;pressure_sealevel;temperature;humidity
11643;BME280;5877;50.930;6.918;2024-03-25T03:09:16;100045.56;;;8.70;61.52
11643;BME280;5877;50.930;6.918;2024-03-25T03:18:58;100124.78;;;9.09;61.26
11643;BME280;5877;50.930;6.918;2024-03-25T03:28:40;99986.34;;;7.88;62.33
11643;BME280;5877;50.930;6.918;2024-03-25T03:38:21;100188.25;;;9.36;61.78
11643;BME280;5877;50.930;6.918;2024-03-25T03:48:03;100202.56;;;9.33;61.43
11643;BME280;5877;50.930;6.918;2024-03-25T03:57:45;100144.16;;;8.76;61.96
11643;BME280;5877;50.930;6.918;2024-03-25T04:07:27;100142.34;;;8.39;63.03
11643;BME280;5877;50.930;6.918;2024-03-25T04:17:09;100193.66;;;8.27;64.35
11643;BME280;5877;50.930;6.918;2024-03-25T04:26:53;100189.09;;;8.09;64.76
11643;BME280;5877;50.930;6.918;2024-03-25T04:36:36;100137.78;;;6.84;67.88
11643;BME280;5877;50.930;6.918;2024-03-25T04:46:17;100105.59;;;6.44;68.19
11643;BME280;5877;50.930;6.918;2024-03-25T04:55:59;100194.78;;;6.94;69.67
11643;BME280;5877;50.930;6.918;2024-03-25T05:05:41;100205.03;;;6.95;70.02
11643;BME280;5877;50.930;6.918;2024-03-25T05:15:23;100089.44;;;5.66;71.98
11643;BME280;5877;50.930;6.918;2024-03-25T05:25:09;100212.03;;;6.34;74.00
11643;BME280;5877;50.930;6.918;2024-03-25T05:34:51;100066.47;;;5.42;72.44
11643;BME280;5877;50.930;6.918;2024-03-25T05:44:32;100208.81;;;6.86;70.52
11643;BME280;5877;50.930;6.918;2024-03-25T05:54:13;99924.03;;;5.09;70.30
11643;BME280;5877;50.930;6.918;2024-03-25T06:03:55;100222.13;;;7.18;69.09
11643;BME280;5877;50.930;6.918;2024-03-25T06:13:36;100151.84;;;6.90;67.72
11643;BME280;5877;50.930;6.918;2024-03-25T06:23:22;100223.00;;;8.29;65.84
11643;BME280;5877;50.930;6.918;2024-03-25T06:33:04;100196.59;;;8.57;63.26
11643;BME280;5877;50.930;6.918;2024-03-25T06:43:05;100234.22;;;9.57;60.86
11643;BME280;5877;50.930;6.918;2024-03-25T06:52:48;100146.41;;;12.16;52.96
11643;BME280;5877;50.930;6.918;2024-03-25T07:02:30;100179.88;;;15.46;44.83
11643;BME280;5877;50.930;6.918;2024-03-25T07:12:11;100193.75;;;16.78;41.67
11643;BME280;5877;50.930;6.918;2024-03-25T07:21:52;100165.66;;;17.28;39.83
11643;BME280;5877;50.930;6.918;2024-03-25T07:31:33;100208.66;;;20.10;35.38
11643;BME280;5877;50.930;6.918;2024-03-25T07:41:14;100063.34;;;20.18;33.55
11643;BME280;5877;50.930;6.918;2024-03-25T07:50:56;100164.50;;;22.31;31.11
11643;BME280;5877;50.930;6.918;2024-03-25T08:00:39;100175.19;;;23.66;30.29
11643;BME280;5877;50.930;6.918;2024-03-25T08:10:20;100130.72;;;24.90;27.42
11643;BME280;5877;50.930;6.918;2024-03-25T08:20:01;100198.00;;;24.85;27.17
11643;BME280;5877;50.930;6.918;2024-03-25T08:29:43;100073.09;;;22.74;29.35
11643;BME280;5877;50.930;6.918;2024-03-25T08:39:24;100159.91;;;23.04;29.17
11643;BME280;5877;50.930;6.918;2024-03-25T08:49:06;100106.69;;;22.80;27.51
11643;BME280;5877;50.930;6.918;2024-03-25T08:58:47;100138.22;;;20.91;30.11
11643;BME280;5877;50.930;6.918;2024-03-25T09:08:28;100184.06;;;22.41;27.71
11643;BME280;5877;50.930;6.918;2024-03-25T09:18:11;100127.25;;;22.57;27.67
11643;BME280;5877;50.930;6.918;2024-03-25T09:27:54;100158.78;;;23.58;26.80
11643;BME280;5877;50.930;6.918;2024-03-25T09:37:35;100078.38;;;23.58;27.69
11643;BME280;5877;50.930;6.918;2024-03-25T09:47:17;100126.59;;;21.61;29.57
11643;BME280;5877;50.930;6.918;2024-03-25T09:57:00;100147.16;;;19.30;32.37
11643;BME280;5877;50.930;6.918;2024-03-25T10:06:42;100132.78;;;18.63;33.02
11643;BME280;5877;50.930;6.918;2024-03-25T10:16:23;100077.28;;;18.51;32.05
11643;BME280;5877;50.930;6.918;2024-03-25T10:26:04;100075.94;;;18.54;31.92
11643;BME280;5877;50.930;6.918;2024-03-25T10:35:48;100087.16;;;18.45;32.85
11643;BME280;5877;50.930;6.918;2024-03-25T10:45:34;100050.00;;;18.01;33.43
11643;BME280;5877;50.930;6.918;2024-03-25T10:55:16;100001.25;;;17.12;32.98
11643;BME280;5877;50.930;6.918;2024-03-25T11:04:58;100047.41;;;17.91;31.74
11643;BME280;5877;50.930;6.918;2024-03-25T11:14:40;99981.22;;;18.05;31.28
11643;BME280;5877;50.930;6.918;2024-03-25T11:24:28;100018.59;;;18.13;33.05
11643;BME280;5877;50.930;6.918;2024-03-25T11:34:13;100018.50;;;17.05;32.63
11643;BME280;5877;50.930;6.918;2024-03-25T11:43:54;99998.44;;;17.58;30.96
11643;BME280;5877;50.930;6.918;2024-03-25T11:53:36;99898.81;;;17.27;30.86
11643;BME280;5877;50.930;6.918;2024-03-25T12:03:19;99975.22;;;17.25;32.22
11643;BME280;5877;50.930;6.918;2024-03-25T12:13:01;99911.75;;;16.64;32.55
11643;BME280;5877;50.930;6.918;2024-03-25T12:22:44;99928.16;;;15.69;34.48
11643;BME280;5877;50.930;6.918;2024-03-25T12:32:41;99898.34;;;17.14;32.03
11643;BME280;5877;50.930;6.918;2024-03-25T12:42:24;99875.22;;;16.35;33.55
11643;BME280;5877;50.930;6.918;2024-03-25T12:52:08;99863.94;;;16.99;32.40
11643;BME280;5877;50.930;6.918;2024-03-25T13:01:55;99865.00;;;17.92;30.43
11643;BME280;5877;50.930;6.918;2024-03-25T13:11:40;99746.69;;;17.12;29.14
11643;BME280;5877;50.930;6.918;2024-03-25T13:21:22;99768.94;;;16.67;29.88
11643;BME280;5877;50.930;6.918;2024-03-25T13:31:06;99707.59;;;16.35;32.21
11643;BME280;5877;50.930;6.918;2024-03-25T13:40:49;99785.94;;;17.10;31.74
11643;BME280;5877;50.930;6.918;2024-03-25T13:50:33;99689.38;;;16.23;31.72
11643;BME280;5877;50.930;6.918;2024-03-25T14:00:15;99776.72;;;16.28;32.14
11643;BME280;5877;50.930;6.918;2024-03-25T14:09:57;99745.34;;;17.49;30.43
11643;BME280;5877;50.930;6.918;2024-03-25T14:19:40;99719.97;;;15.24;33.67
11643;BME280;5877;50.930;6.918;2024-03-25T14:29:22;99655.84;;;15.98;32.27
11643;BME280;5877;50.930;6.918;2024-03-25T14:39:06;99725.81;;;16.46;32.41
11643;BME280;5877;50.930;6.918;2024-03-25T14:48:48;99679.53;;;16.34;31.98
11643;BME280;5877;50.930;6.918;2024-03-25T14:58:30;99684.75;;;16.49;30.77
11643;BME280;5877;50.930;6.918;2024-03-25T15:08:12;99467.28;;;15.13;31.34
11643;BME280;5877;50.930;6.918;2024-03-25T15:17:57;99594.59;;;16.98;29.86
11643;BME280;5877;50.930;6.918;2024-03-25T15:27:38;99638.69;;;16.89;30.59
11643;BME280;5877;50.930;6.918;2024-03-25T15:37:20;99616.19;;;15.88;32.04
11643;BME280;5877;50.930;6.918;2024-03-25T15:47:02;99474.38;;;15.22;31.38
11643;BME280;5877;50.930;6.918;2024-03-25T15:56:45;99601.28;;;15.02;33.53
11643;BME280;5877;50.930;6.918;2024-03-25T16:06:26;99550.03;;;14.63;33.77
11643;BME280;5877;50.930;6.918;2024-03-25T16:16:08;99572.19;;;15.27;33.87
11643;BME280;5877;50.930;6.918;2024-03-25T16:25:50;99511.72;;;14.35;34.55
11643;BME280;5877;50.930;6.918;2024-03-25T16:35:31;99537.38;;;14.75;34.42
11643;BME280;5877;50.930;6.918;2024-03-25T16:45:13;99523.28;;;14.03;35.00
11643;BME280;5877;50.930;6.918;2024-03-25T16:54:54;99489.66;;;13.63;35.40
11643;BME280;5877;50.930;6.918;2024-03-25T17:04:36;99444.84;;;13.06;34.96
11643;BME280;5877;50.930;6.918;2024-03-25T17:14:19;99499.94;;;13.64;33.53
11643;BME280;5877;50.930;6.918;2024-03-25T17:24:00;99530.25;;;13.57;33.93
11643;BME280;5877;50.930;6.918;2024-03-25T17:33:42;99531.66;;;13.22;34.30
11643;BME280;5877;50.930;6.918;2024-03-25T17:43:24;99517.06;;;13.10;35.57
11643;BME280;5877;50.930;6.918;2024-03-25T17:53:05;99368.34;;;12.70;35.92
11643;BME280;5877;50.930;6.918;2024-03-25T18:02:47;99445.75;;;13.21;36.42
11643;BME280;5877;50.930;6.918;2024-03-25T18:12:34;99370.22;;;12.32;36.64
11643;BME280;5877;50.930;6.918;2024-03-25T18:22:16;99490.19;;;12.65;37.31
11643;BME280;5877;50.930;6.918;2024-03-25T18:31:57;99387.91;;;12.05;37.43
11643;BME280;5877;50.930;6.918;2024-03-25T18:41:38;99411.66;;;12.15;38.04
11643;BME280;5877;50.930;6.918;2024-03-25T18:51:28;99460.34;;;12.18;37.89
11643;BME280;5877;50.930;6.918;2024-03-25T19:01:10;99233.47;;;10.51;38.32
11643;BME280;5877;50.930;6.918;2024-03-25T19:10:52;99331.41;;;11.00;38.28
11643;BME280;5877;50.930;6.918;2024-03-25T19:20:33;99455.44;;;11.51;39.32
11643;BME280;5877;50.930;6.918;2024-03-25T19:30:16;99393.97;;;11.30;39.33
11643;BME280;5877;50.930;6.918;2024-03-25T19:39:59;99439.06;;;11.44;40.00
11643;BME280;5877;50.930;6.918;2024-03-25T19:49:43;99377.34;;;10.59;41.08
11643;BME280;5877;50.930;6.918;2024-03-25T19:59:25;99457.19;;;11.01;41.49
11643;BME280;5877;50.930;6.918;2024-03-25T20:09:06;99400.53;;;10.67;41.51
11643;BME280;5877;50.930;6.918;2024-03-25T20:18:48;99386.59;;;10.45;42.15
11643;BME280;5877;50.930;6.918;2024-03-25T20:28:30;99418.03;;;11.00;42.18
11643;BME280;5877;50.930;6.918;2024-03-25T20:38:11;99377.00;;;10.33;42.90
11643;BME280;5877;50.930;6.918;2024-03-25T20:47:54;99407.69;;;10.71;42.78
11643;BME280;5877;50.930;6.918;2024-03-25T20:57:36;99232.78;;;9.28;43.76
11643;BME280;5877;50.930;6.918;2024-03-25T21:07:18;99400.34;;;10.18;44.28
11643;BME280;5877;50.930;6.918;2024-03-25T21:17:01;99262.94;;;9.64;44.35
11643;BME280;5877;50.930;6.918;2024-03-25T21:26:43;99369.44;;;9.87;45.26
11643;BME280;5877;50.930;6.918;2024-03-25T21:36:26;99324.56;;;9.83;44.99
11643;BME280;5877;50.930;6.918;2024-03-25T21:46:10;99330.53;;;9.79;45.09
11643;BME280;5877;50.930;6.918;2024-03-25T21:55:52;99328.06;;;9.72;45.37
11643;BME280;5877;50.930;6.918;2024-03-25T22:05:34;99334.09;;;9.27;45.96
11643;BME280;5877;50.930;6.918;2024-03-25T22:15:16;99301.69;;;8.88;46.52
11643;BME280;5877;50.930;6.918;2024-03-25T22:24:57;99303.19;;;8.72;46.38
11643;BME280;5877;50.930;6.918;2024-03-25T22:34:39;99257.78;;;8.50;46.55
11643;BME280;5877;50.930;6.918;2024-03-25T22:44:21;99219.81;;;8.24;46.35
11643;BME280;5877;50.930;6.918;2024-03-25T22:54:03;99281.03;;;9.03;46.57
11643;BME280;5877;50.930;6.918;2024-03-25T23:03:44;99279.81;;;8.94;46.54
11643;BME280;5877;50.930;6.918;2024-03-25T23:13:26;99273.34;;;8.57;47.85
11643;BME280;5877;50.930;6.918;2024-03-25T23:23:08;99200.41;;;8.20;47.97
11643;BME280;5877;50.930;6.918;2024-03-25T23:32:52;99098.97;;;7.77;47.51
11643;BME280;5877;50.930;6.918;2024-03-25T23:42:34;99200.56;;;8.54;47.61
11643;BME280;5877;50.930;6.918;2024-03-25T23:52:17;99207.25;;;8.61;48.24
